createdAt,value
2018-09-17T00:00:13.810Z,3.90
2018-09-17T00:02:44.249Z,4.40
2018-09-17T00:05:13.856Z,3.60
2018-09-17T00:07:43.960Z,3.73
2018-09-17T00:10:28.850Z,3.50
2018-09-17T00:13:01.571Z,4.00
2018-09-17T00:15:31.009Z,3.90
2018-09-17T00:18:00.420Z,3.90
2018-09-17T00:20:30.244Z,4.03
2018-09-17T00:22:59.706Z,4.17
2018-09-17T00:25:29.039Z,3.90
2018-09-17T00:27:58.659Z,3.93
2018-09-17T00:30:43.969Z,4.30
2018-09-17T00:33:16.414Z,4.20
2018-09-17T00:35:45.824Z,3.80
2018-09-17T00:38:15.175Z,4.43
2018-09-17T00:40:44.623Z,3.80
2018-09-17T00:43:14.472Z,4.30
2018-09-17T00:45:43.984Z,4.20
2018-09-17T00:48:13.705Z,4.23
2018-09-17T00:50:43.044Z,4.67
2018-09-17T00:53:13.057Z,4.73
2018-09-17T00:55:42.499Z,4.27
2018-09-17T00:58:14.606Z,4.60
2018-09-17T01:00:45.442Z,4.60
2018-09-17T01:03:15.865Z,4.13
2018-09-17T01:05:45.528Z,4.17
2018-09-17T01:08:14.830Z,4.10
2018-09-17T01:10:44.537Z,3.90
2018-09-17T01:13:14.145Z,4.33
2018-09-17T01:15:44.321Z,4.30
2018-09-17T01:18:14.440Z,4.60
2018-09-17T01:20:44.622Z,4.10
2018-09-17T01:23:14.778Z,4.33
2018-09-17T01:25:44.189Z,3.80
2018-09-17T01:28:13.744Z,3.90
2018-09-17T01:30:43.098Z,4.77
2018-09-17T01:33:12.655Z,4.07
2018-09-17T01:35:42.082Z,4.63
2018-09-17T01:38:11.602Z,4.33
2018-09-17T01:40:41.573Z,4.30
2018-09-17T01:43:10.927Z,3.90
2018-09-17T01:45:40.429Z,4.50
2018-09-17T01:48:09.744Z,5.13
2018-09-17T01:50:39.370Z,4.40
2018-09-17T01:53:09.107Z,4.70
2018-09-17T01:55:38.477Z,4.20
2018-09-17T01:58:07.782Z,4.40
2018-09-17T02:00:37.112Z,3.93
2018-09-17T02:03:06.578Z,5.03
2018-09-17T02:05:35.833Z,4.83
2018-09-17T02:08:06.817Z,4.60
2018-09-17T02:10:36.135Z,4.40
2018-09-17T02:13:05.791Z,5.00
2018-09-17T02:15:35.042Z,4.77
2018-09-17T02:18:04.422Z,4.40
2018-09-17T02:20:33.649Z,4.50
2018-09-17T02:23:03.336Z,4.97
2018-09-17T02:25:33.599Z,5.03
2018-09-17T02:28:03.509Z,5.33
2018-09-17T02:30:33.566Z,4.67
2018-09-17T02:33:03.096Z,4.60
2018-09-17T02:35:32.491Z,4.50
2018-09-17T02:38:02.450Z,4.50
2018-09-17T02:40:33.044Z,5.40
2018-09-17T02:43:02.277Z,4.63
2018-09-17T02:45:33.169Z,4.80
2018-09-17T02:48:02.524Z,4.50
2018-09-17T02:50:33.191Z,5.30
2018-09-17T02:53:03.228Z,5.27
2018-09-17T02:55:32.816Z,4.63
2018-09-17T02:58:02.255Z,5.40
2018-09-17T03:00:31.672Z,5.20
2018-09-17T03:03:01.164Z,4.70
2018-09-17T03:05:30.651Z,4.90
2018-09-17T03:07:59.905Z,4.63
2018-09-17T03:10:29.782Z,6.40
2018-09-17T03:12:59.092Z,5.80
2018-09-17T03:15:39.706Z,5.33
2018-09-17T03:18:09.004Z,4.97
2018-09-17T03:20:39.568Z,5.80
2018-09-17T03:23:08.997Z,5.30
2018-09-17T03:25:45.203Z,5.20
2018-09-17T03:28:14.544Z,5.73
2018-09-17T03:30:43.972Z,5.83
2018-09-17T03:33:13.886Z,5.63
2018-09-17T03:35:43.257Z,6.40
2018-09-17T03:38:29.012Z,5.50
2018-09-17T03:40:58.492Z,5.60
2018-09-17T03:43:27.815Z,5.63
2018-09-17T03:45:57.737Z,4.90
2018-09-17T03:48:27.604Z,5.90
2018-09-17T03:50:57.016Z,5.60
2018-09-17T03:53:27.724Z,5.43
2018-09-17T03:55:57.514Z,5.60
2018-09-17T03:58:27.228Z,5.40
2018-09-17T04:00:56.609Z,5.37
2018-09-17T04:03:25.899Z,5.43
2018-09-17T04:05:55.360Z,5.80
2018-09-17T04:08:24.636Z,13.37
2018-09-17T04:10:54.462Z,5.47
2018-09-17T04:13:23.796Z,5.97
2018-09-17T04:15:53.442Z,5.90
2018-09-17T04:18:22.807Z,5.57
2018-09-17T04:20:52.828Z,6.10
2018-09-17T04:23:32.524Z,5.67
2018-09-17T04:26:02.828Z,6.00
2018-09-17T04:28:32.204Z,5.73
2018-09-17T04:31:02.613Z,5.73
2018-09-17T04:33:36.099Z,5.80
2018-09-17T04:36:06.432Z,6.03
2018-09-17T04:38:35.812Z,5.43
2018-09-17T04:41:05.996Z,5.80
2018-09-17T04:43:35.894Z,5.60
2018-09-17T04:46:05.823Z,6.03
2018-09-17T04:48:35.158Z,5.37
2018-09-17T04:51:05.641Z,6.13
2018-09-17T04:53:35.395Z,6.10
2018-09-17T04:56:05.008Z,6.13
2018-09-17T04:58:39.673Z,5.90
2018-09-17T05:01:12.058Z,5.40
2018-09-17T05:03:41.642Z,6.50
2018-09-17T05:06:10.968Z,6.07
2018-09-17T05:08:40.325Z,7.87
2018-09-17T05:11:11.280Z,6.27
2018-09-17T05:13:41.394Z,6.43
2018-09-17T05:16:17.456Z,7.10
2018-09-17T05:18:53.229Z,6.30
2018-09-17T05:21:29.873Z,7.57
2018-09-17T05:23:59.250Z,8.77
2018-09-17T05:26:30.114Z,7.07
2018-09-17T05:29:01.974Z,7.20
2018-09-17T05:31:31.377Z,6.90
2018-09-17T05:34:00.736Z,7.07
2018-09-17T05:36:30.171Z,11.90
2018-09-17T05:38:59.573Z,8.13
2018-09-17T05:41:32.468Z,8.13
2018-09-17T05:44:02.064Z,7.57
2018-09-17T05:46:31.995Z,7.57
2018-09-17T05:49:03.855Z,7.23
2018-09-17T05:51:40.122Z,7.30
2018-09-17T05:54:11.380Z,7.53
2018-09-17T05:56:42.248Z,7.07
2018-09-17T05:59:15.328Z,7.90
2018-09-17T06:01:44.977Z,7.83
2018-09-17T06:04:19.708Z,6.80
2018-09-17T06:06:50.615Z,7.63
2018-09-17T06:09:20.400Z,7.03
2018-09-17T06:11:50.258Z,7.53
2018-09-17T06:14:20.321Z,7.27
2018-09-17T06:16:57.513Z,6.80
2018-09-17T06:19:29.314Z,7.63
2018-09-17T06:22:01.584Z,6.90
2018-09-17T06:24:31.813Z,7.60
2018-09-17T06:27:01.726Z,8.27
2018-09-17T06:29:33.178Z,7.77
2018-09-17T06:32:03.394Z,7.00
2018-09-17T06:34:33.785Z,7.30
2018-09-17T06:37:04.165Z,7.60
2018-09-17T06:39:34.110Z,7.30
2018-09-17T06:42:03.889Z,7.37
2018-09-17T06:44:33.278Z,7.00
2018-09-17T06:47:02.579Z,8.67
2018-09-17T06:49:33.050Z,8.60
2018-09-17T06:52:02.451Z,7.57
2018-09-17T06:54:31.871Z,7.47
2018-09-17T06:57:01.413Z,6.90
2018-09-17T06:59:31.425Z,7.47
2018-09-17T07:02:00.968Z,7.20
2018-09-17T07:04:31.592Z,7.40
2018-09-17T07:07:01.644Z,7.20
2018-09-17T07:09:30.999Z,7.40
2018-09-17T07:12:01.669Z,7.10
2018-09-17T07:14:31.770Z,7.80
2018-09-17T07:17:02.063Z,7.10
2018-09-17T07:19:32.392Z,10.03
2018-09-17T07:22:02.828Z,8.03
2018-09-17T07:24:32.110Z,6.93
2018-09-17T07:27:03.253Z,7.43
2018-09-17T07:29:38.600Z,7.40
2018-09-17T07:32:08.623Z,6.90
2018-09-17T07:34:38.692Z,6.80
2018-09-17T07:37:08.624Z,7.33
2018-09-17T07:39:39.296Z,8.17
2018-09-17T07:42:10.144Z,7.47
2018-09-17T07:44:39.423Z,7.50
2018-09-17T07:47:09.753Z,7.93
2018-09-17T07:49:39.113Z,7.83
2018-09-17T07:52:08.492Z,7.50
2018-09-17T07:54:39.095Z,7.50
2018-09-17T07:57:08.498Z,7.50
2018-09-17T07:59:39.398Z,7.17
2018-09-17T08:02:09.919Z,6.83
2018-09-17T08:04:39.351Z,6.80
2018-09-17T08:07:08.627Z,6.70
2018-09-17T08:09:37.926Z,6.50
2018-09-17T08:12:07.235Z,6.80
2018-09-17T08:14:37.802Z,6.13
2018-09-17T08:17:07.133Z,6.13
2018-09-17T08:19:37.113Z,6.57
2018-09-17T08:22:06.469Z,6.30
2018-09-17T08:24:35.859Z,7.27
2018-09-17T08:27:05.186Z,6.50
2018-09-17T08:29:34.653Z,6.63
2018-09-17T08:32:04.466Z,5.80
2018-09-17T08:34:34.321Z,6.60
2018-09-17T08:37:04.391Z,5.87
2018-09-17T08:39:33.800Z,5.87
2018-09-17T08:42:03.053Z,5.53
2018-09-17T08:44:32.522Z,5.80
2018-09-17T08:47:02.155Z,5.90
2018-09-17T08:49:31.560Z,6.00
2018-09-17T08:52:01.153Z,5.33
2018-09-17T08:54:31.494Z,4.93
2018-09-17T08:57:01.149Z,5.30
2018-09-17T08:59:35.825Z,5.73
2018-09-17T09:02:21.384Z,4.83
2018-09-17T09:04:54.243Z,5.30
2018-09-17T09:07:29.325Z,4.97
2018-09-17T09:10:03.945Z,5.57
2018-09-17T09:12:39.619Z,5.47
2018-09-17T09:15:14.302Z,5.80
2018-09-17T09:17:44.862Z,5.37
2018-09-17T09:20:15.126Z,5.90
2018-09-17T09:22:44.686Z,5.40
2018-09-17T09:25:14.146Z,5.83
2018-09-17T09:27:43.715Z,5.77
2018-09-17T09:30:13.361Z,6.13
2018-09-17T09:32:42.906Z,5.97
2018-09-17T09:35:13.074Z,5.53
2018-09-17T09:37:42.599Z,5.73
2018-09-17T09:40:13.226Z,5.90
2018-09-17T09:42:43.526Z,6.13
2018-09-17T09:45:15.100Z,6.27
2018-09-17T09:47:46.751Z,6.53
2018-09-17T09:50:16.420Z,6.33
2018-09-17T09:52:45.879Z,4.93
2018-09-17T09:55:15.782Z,5.27
2018-09-17T09:57:45.386Z,5.43
2018-09-17T10:00:20.310Z,5.53
2018-09-17T10:02:55.111Z,5.37
2018-09-17T10:05:25.005Z,6.00
2018-09-17T10:07:55.317Z,5.63
2018-09-17T10:10:29.930Z,5.47
2018-09-17T10:13:04.619Z,5.77
2018-09-17T10:15:55.287Z,6.30
2018-09-17T10:18:30.079Z,5.70
2018-09-17T10:21:04.893Z,5.40
2018-09-17T10:23:35.255Z,5.50
2018-09-17T10:26:04.966Z,4.80
2018-09-17T10:28:34.511Z,4.70
2018-09-17T10:31:04.029Z,4.80
2018-09-17T10:33:34.334Z,5.13
2018-09-17T10:36:05.949Z,5.93
2018-09-17T10:38:35.293Z,5.30
2018-09-17T10:41:05.251Z,4.50
2018-09-17T10:43:35.132Z,4.23
2018-09-17T10:46:05.754Z,3.93
2018-09-17T10:48:35.268Z,4.10
2018-09-17T10:51:06.230Z,3.77
2018-09-17T10:53:38.527Z,4.70
2018-09-17T10:56:08.307Z,4.40
2018-09-17T10:58:38.375Z,3.80
2018-09-17T11:01:07.781Z,3.63
2018-09-17T11:03:37.163Z,3.43
2018-09-17T11:06:08.132Z,4.03
2018-09-17T11:08:38.285Z,3.80
2018-09-17T11:11:08.115Z,3.70
2018-09-17T11:13:38.705Z,4.10
2018-09-17T11:16:08.594Z,4.00
2018-09-17T11:18:38.472Z,3.80
2018-09-17T11:21:08.435Z,4.00
2018-09-17T11:23:39.122Z,3.30
2018-09-17T11:26:08.688Z,3.37
2018-09-17T11:28:38.810Z,2.57
2018-09-17T11:31:10.295Z,3.07
2018-09-17T11:33:41.093Z,3.00
2018-09-17T11:36:11.795Z,3.73
2018-09-17T11:38:41.208Z,3.10
2018-09-17T11:41:10.667Z,3.27
2018-09-17T11:43:40.693Z,2.73
2018-09-17T11:46:11.336Z,2.33
2018-09-17T11:48:40.886Z,2.57
2018-09-17T11:51:10.934Z,2.40
2018-09-17T11:53:41.351Z,2.10
2018-09-17T11:56:11.234Z,2.30
2018-09-17T11:58:40.709Z,2.27
2018-09-17T12:01:15.428Z,2.30
2018-09-17T12:04:50.574Z,4.20
2018-09-17T12:07:25.768Z,2.85
2018-09-17T12:09:56.579Z,3.20
2018-09-17T12:12:25.993Z,2.50
2018-09-17T12:14:55.565Z,2.80
2018-09-17T12:17:25.435Z,2.20
2018-09-17T12:19:58.677Z,2.27
2018-09-17T12:22:42.752Z,2.05
2018-09-17T12:25:19.628Z,2.40
2018-09-17T12:27:49.413Z,2.37
2018-09-17T12:30:28.546Z,8.08
2018-09-17T12:33:06.856Z,2.27
2018-09-17T12:35:39.436Z,2.65
2018-09-17T12:38:08.830Z,2.30
2018-09-17T12:40:38.971Z,2.55
2018-09-17T12:43:21.883Z,2.80
2018-09-17T12:45:54.720Z,2.72
2018-09-17T12:48:24.536Z,2.77
2018-09-17T12:50:54.020Z,3.47
2018-09-17T12:53:23.722Z,3.45
2018-09-17T12:55:53.696Z,2.70
2018-09-17T12:58:25.144Z,3.22
2018-09-17T13:00:55.892Z,3.35
2018-09-17T13:03:25.733Z,3.60
2018-09-17T13:05:55.310Z,3.37
2018-09-17T13:08:25.568Z,3.17
2018-09-17T13:10:55.213Z,2.87
2018-09-17T13:13:24.953Z,3.50
2018-09-17T13:15:56.064Z,2.65
2018-09-17T13:18:26.552Z,2.87
2018-09-17T13:20:56.842Z,3.77
2018-09-17T13:23:26.496Z,3.42
2018-09-17T13:25:56.879Z,3.92
2018-09-17T13:28:28.224Z,6.97
2018-09-17T13:30:58.652Z,3.05
2018-09-17T13:33:28.400Z,3.47
2018-09-17T13:35:59.302Z,3.10
2018-09-17T13:38:29.184Z,3.35
2018-09-17T13:41:00.912Z,3.20
2018-09-17T13:43:37.074Z,3.35
2018-09-17T13:46:06.537Z,2.58
2018-09-17T13:48:36.029Z,3.45
2018-09-17T13:51:05.882Z,3.92
2018-09-17T13:53:35.613Z,3.30
2018-09-17T13:56:06.602Z,3.08
2018-09-17T13:58:36.055Z,5.30
2018-09-17T14:01:05.457Z,3.47
2018-09-17T14:03:34.891Z,3.95
2018-09-17T14:06:04.960Z,3.65
2018-09-17T14:08:34.708Z,3.60
2018-09-17T14:11:04.285Z,3.60
2018-09-17T14:13:34.001Z,3.65
2018-09-17T14:16:07.642Z,3.02
2018-09-17T14:18:37.765Z,2.98
2018-09-17T14:21:07.595Z,3.33
2018-09-17T14:23:36.852Z,2.72
2018-09-17T14:26:06.562Z,3.10
2018-09-17T14:28:35.985Z,3.17
2018-09-17T14:31:05.392Z,3.05
2018-09-17T14:33:37.693Z,2.80
2018-09-17T14:36:07.149Z,3.00
2018-09-17T14:38:43.076Z,2.67
2018-09-17T14:41:12.542Z,3.27
2018-09-17T14:43:42.122Z,3.10
2018-09-17T14:46:12.530Z,2.87
2018-09-17T14:48:41.979Z,3.12
2018-09-17T14:51:11.458Z,3.08
2018-09-17T14:53:41.442Z,3.33
2018-09-17T14:56:10.816Z,2.83
2018-09-17T14:58:40.158Z,3.15
2018-09-17T15:01:09.645Z,2.98
2018-09-17T15:03:39.079Z,2.60
2018-09-17T15:06:08.724Z,2.52
2018-09-17T15:08:38.135Z,2.62
2018-09-17T15:11:07.575Z,2.67
2018-09-17T15:13:37.724Z,2.55
2018-09-17T15:16:07.202Z,2.47
2018-09-17T15:18:38.149Z,2.67
2018-09-17T15:21:09.264Z,2.77
2018-09-17T15:23:38.749Z,3.00
2018-09-17T15:26:08.428Z,3.08
2018-09-17T15:28:37.811Z,2.50
2018-09-17T15:31:07.553Z,3.90
2018-09-17T15:33:37.209Z,3.67
2018-09-17T15:36:06.840Z,3.10
2018-09-17T15:38:36.553Z,2.62
2018-09-17T15:41:09.463Z,2.02
2018-09-17T15:43:39.484Z,2.02
2018-09-17T15:46:09.571Z,2.12
2018-09-17T15:48:40.386Z,2.20
2018-09-17T15:51:10.557Z,2.12
2018-09-17T15:53:39.938Z,2.50
2018-09-17T15:56:10.401Z,2.30
2018-09-17T15:58:40.065Z,2.60
2018-09-17T16:01:09.707Z,3.20
2018-09-17T16:03:39.392Z,2.52
2018-09-17T16:06:09.014Z,2.67
2018-09-17T16:08:39.287Z,2.60
2018-09-17T16:11:08.904Z,3.80
2018-09-17T16:13:38.315Z,4.53
2018-09-17T16:16:08.291Z,3.12
2018-09-17T16:18:39.027Z,2.98
2018-09-17T16:21:09.734Z,2.70
2018-09-17T16:23:39.361Z,3.15
2018-09-17T16:26:09.745Z,4.20
2018-09-17T16:28:39.348Z,4.87
2018-09-17T16:31:09.628Z,4.60
2018-09-17T16:33:40.260Z,4.95
2018-09-17T16:36:09.864Z,4.12
2018-09-17T16:38:40.578Z,4.17
2018-09-17T16:41:09.992Z,4.53
2018-09-17T16:43:40.415Z,3.60
2018-09-17T16:46:10.149Z,3.92
2018-09-17T16:48:39.986Z,5.08
2018-09-17T16:51:10.559Z,5.00
2018-09-17T16:53:40.653Z,6.15
2018-09-17T16:56:10.463Z,4.70
2018-09-17T16:58:40.902Z,4.73
2018-09-17T17:01:10.451Z,11.23
2018-09-17T17:03:40.567Z,7.30
2018-09-17T17:06:11.608Z,5.90
2018-09-17T17:08:41.201Z,5.53
2018-09-17T17:11:10.835Z,5.47
2018-09-17T17:13:40.536Z,5.80
2018-09-17T17:16:10.091Z,5.77
2018-09-17T17:18:39.684Z,5.73
2018-09-17T17:21:09.620Z,6.30
2018-09-17T17:23:39.165Z,5.77
2018-09-17T17:26:09.505Z,6.10
2018-09-17T17:28:39.463Z,6.57
2018-09-17T17:31:09.133Z,6.00
2018-09-17T17:33:39.530Z,5.87
2018-09-17T17:36:12.307Z,6.07
2018-09-17T17:38:42.217Z,9.17
2018-09-17T17:41:13.780Z,7.00
2018-09-17T17:43:43.450Z,6.90
2018-09-17T17:46:13.679Z,7.40
2018-09-17T17:48:43.889Z,6.63
2018-09-17T17:51:15.955Z,7.23
2018-09-17T17:53:45.437Z,7.13
2018-09-17T17:56:15.419Z,9.20
2018-09-17T17:58:45.270Z,8.07
2018-09-17T18:01:15.847Z,8.00
2018-09-17T18:03:45.205Z,11.03
2018-09-17T18:06:15.296Z,10.23
2018-09-17T18:08:44.585Z,8.43
2018-09-17T18:11:14.998Z,7.80
2018-09-17T18:13:45.522Z,11.50
2018-09-17T18:16:15.387Z,10.20
2018-09-17T18:18:45.442Z,8.87
2018-09-17T18:21:19.093Z,8.07
2018-09-17T18:23:48.926Z,7.77
2018-09-17T18:26:19.971Z,8.93
2018-09-17T18:28:52.866Z,8.37
2018-09-17T18:31:23.312Z,8.43
2018-09-17T18:33:54.338Z,7.33
2018-09-17T18:36:24.052Z,7.43
2018-09-17T18:38:54.307Z,6.17
2018-09-17T18:41:24.304Z,5.50
2018-09-17T18:43:55.326Z,6.57
2018-09-17T18:46:25.763Z,6.90
2018-09-17T18:48:56.127Z,6.23
2018-09-17T18:51:27.360Z,8.77
2018-09-17T18:53:57.006Z,6.87
2018-09-17T18:56:26.322Z,5.90
2018-09-17T18:58:55.817Z,9.70
2018-09-17T19:01:25.233Z,8.60
2018-09-17T19:03:57.722Z,34.37
2018-09-17T19:06:28.141Z,16.13
2018-09-17T19:08:57.908Z,8.43
2018-09-17T19:11:27.367Z,6.53
2018-09-17T19:14:02.053Z,6.27
2018-09-17T19:16:38.325Z,5.70
2018-09-17T19:19:07.983Z,5.10
2018-09-17T19:21:42.822Z,4.87
2018-09-17T19:24:13.499Z,4.50
2018-09-17T19:26:44.431Z,4.50
2018-09-17T19:29:18.679Z,5.00
2018-09-17T19:31:49.126Z,5.90
2018-09-17T19:37:06.732Z,6.87
2018-09-17T19:39:41.344Z,5.37
2018-09-17T19:42:11.380Z,6.60
2018-09-17T19:44:45.757Z,5.50
2018-09-17T19:47:16.623Z,6.43
2018-09-17T19:49:47.055Z,5.47
2018-09-17T19:52:21.109Z,5.63
2018-09-17T19:54:51.448Z,5.80
2018-09-17T19:57:26.119Z,5.73
2018-09-17T19:59:57.270Z,5.30
2018-09-17T20:02:27.501Z,5.83
2018-09-17T20:05:02.329Z,4.87
2018-09-17T20:07:31.889Z,5.07
2018-09-17T20:10:02.446Z,5.23
2018-09-17T20:12:32.162Z,4.40
2018-09-17T20:15:01.964Z,5.37
2018-09-17T20:17:32.472Z,5.57
2018-09-17T20:20:02.846Z,5.27
2018-09-17T20:22:33.882Z,5.20
2018-09-17T20:25:04.587Z,5.90
2018-09-17T20:27:35.128Z,5.37
2018-09-17T20:30:05.954Z,5.40
2018-09-17T20:32:35.373Z,5.70
2018-09-17T20:35:06.012Z,6.17
2018-09-17T20:37:36.805Z,6.03
2018-09-17T20:40:06.248Z,6.20
2018-09-17T20:42:36.247Z,6.27
2018-09-17T20:45:06.027Z,6.40
2018-09-17T20:47:37.586Z,6.77
2018-09-17T20:50:07.182Z,6.20
2018-09-17T20:52:36.608Z,5.60
2018-09-17T20:55:05.937Z,5.10
2018-09-17T20:57:35.408Z,5.90
2018-09-17T21:00:05.558Z,5.40
2018-09-17T21:02:35.081Z,5.33
2018-09-17T21:05:04.833Z,4.83
2018-09-17T21:07:34.533Z,4.93
2018-09-17T21:10:05.182Z,4.80
2018-09-17T21:12:35.424Z,5.70
2018-09-17T21:15:05.436Z,5.47
2018-09-17T21:17:36.573Z,5.33
2018-09-17T21:20:06.264Z,5.40
2018-09-17T21:22:35.820Z,4.73
2018-09-17T21:25:05.978Z,5.50
2018-09-17T21:27:35.449Z,5.63
2018-09-17T21:30:05.250Z,4.60
2018-09-17T21:32:34.570Z,5.00
2018-09-17T21:35:04.949Z,4.63
2018-09-17T21:37:34.478Z,4.47
2018-09-17T21:40:03.884Z,4.93
2018-09-17T21:42:33.525Z,4.43
2018-09-17T21:45:03.047Z,4.23
2018-09-17T21:47:33.421Z,4.30
2018-09-17T21:50:03.036Z,4.57
2018-09-17T21:52:32.877Z,4.00
2018-09-17T21:55:03.268Z,4.50
2018-09-17T21:57:32.770Z,4.13
2018-09-17T22:00:02.488Z,3.93
2018-09-17T22:02:32.065Z,4.23
2018-09-17T22:05:01.593Z,4.77
2018-09-17T22:07:31.845Z,4.60
2018-09-17T22:10:01.261Z,4.90
2018-09-17T22:12:31.128Z,4.50
2018-09-17T22:15:01.718Z,4.90
2018-09-17T22:17:31.328Z,5.70
2018-09-17T22:20:00.668Z,5.10
2018-09-17T22:22:30.439Z,4.30
2018-09-17T22:24:59.852Z,4.37
2018-09-17T22:27:30.427Z,3.60
2018-09-17T22:30:00.554Z,3.63
2018-09-17T22:32:30.294Z,3.70
2018-09-17T22:34:59.707Z,3.80
2018-09-17T22:37:29.318Z,3.63
2018-09-17T22:39:59.067Z,3.67
2018-09-17T22:42:28.951Z,3.50
2018-09-17T22:44:59.665Z,3.73
2018-09-17T22:47:30.271Z,4.27
2018-09-17T22:50:00.014Z,3.87
2018-09-17T22:52:29.357Z,3.97
2018-09-17T22:54:59.029Z,3.93
2018-09-17T22:57:28.370Z,4.20
2018-09-17T22:59:58.118Z,4.40
2018-09-17T23:02:27.464Z,3.63
2018-09-17T23:04:56.894Z,3.43
2018-09-17T23:07:26.186Z,3.40
2018-09-17T23:09:56.120Z,3.53
2018-09-17T23:12:25.624Z,4.27
2018-09-17T23:14:55.024Z,4.37
2018-09-17T23:17:24.401Z,3.53
2018-09-17T23:19:53.932Z,3.90
2018-09-17T23:22:24.326Z,3.53
2018-09-17T23:24:53.720Z,3.97
2018-09-17T23:27:23.150Z,4.00
2018-09-17T23:29:52.983Z,3.93
2018-09-17T23:32:22.434Z,3.17
2018-09-17T23:34:51.782Z,3.97
2018-09-17T23:37:22.193Z,3.50
2018-09-17T23:39:52.142Z,3.83
2018-09-17T23:42:21.683Z,3.53
2018-09-17T23:44:52.454Z,3.90
2018-09-17T23:47:23.128Z,3.30
2018-09-17T23:49:52.832Z,4.07
2018-09-17T23:52:22.196Z,3.90
2018-09-17T23:54:54.606Z,4.30
2018-09-17T23:57:24.090Z,3.80
2018-09-17T23:59:55.218Z,3.67
